KBTL/BTL METAR and TAF weather

Enter ICAO airport designator
Station Type Date Time Source
KBTL METAR 2020/07/08 00:53 UTC NOAA

KBTL 080053Z 27003KT 10SM CLR 30/19 A2995 RMK AO2 SLP135 T03000194


Station Type Date Time Source
KBTL Decoded METAR 2020/07/08 00:53 UTC NOAA

W.K.KELLOGG REGIONAL AIRPORT, MI, United States (KBTL) 42-18N 085-15W 290M
Jul 07, 2020 - 08:53 PM EDT / 2020.07.08 0053 UTC
Wind: from the W (270 degrees) at 3 MPH (3 KT):0
Visibility: 10 mile(s):0
Sky conditions: clear
Temperature: 86.0 F (30.0 C)
Dew Point: 66.9 F (19.4 C)
Relative Humidity: 53%
Pressure (altimeter): 29.95 in. Hg (1014 hPa)
ob: KBTL 080053Z 27003KT 10SM CLR 30/19 A2995 RMK AO2 SLP135 T03000194
cycle: 1

Station Type Date Time Source
KBTL TAF 2020/07/07 18:34 UTC NOAA

TAF KBTL 071732Z 0718/0818 26010KT P6SM VCTS SCT050CB SCT120 SCT250
FM072100 26008KT P6SM SCT040
FM080000 00000KT P6SM SKC
FM081200 11003KT P6SM BKN045
FM081700 18006KT P6SM SCT070

Example: see airport list